Overview Statistics Trail Chart Weather Telemetry Raw packets
 

This is the latest recevied weather packets stored in our database for station/object YB2VNE-13. If no packets are shown the sender has not sent any weather packets the latest 10 day(s).

<< 1 2 3 4 5 6 >>
Time Temp. Humidity Pressure Rain* Wind** Luminosity Snow
1788602690 29.44° C 56% 1000 hPa - - 0 W/m² -
1788602366 29.44° C 55% 1000 hPa - - 0 W/m² -
1788602043 29.44° C 55% 999 hPa - - 0 W/m² -
1788601719 29.44° C 55% 999 hPa - - 0 W/m² -
1788601409 29.44° C 55% 999 hPa - - 0 W/m² -
1788601071 30° C 54% 999 hPa - - 0 W/m² -
1788600747 30° C 53% 999 hPa - - 0 W/m² -
1788600423 30.56° C 53% 999 hPa - - 0 W/m² -
1788600099 29.44° C 55% 999 hPa - - 0 W/m² -
1788599775 29.44° C 55% 999 hPa - - 0 W/m² -
1788599451 30° C 54% 999 hPa - - 0 W/m² -
1788599127 30° C 54% 999 hPa - - 0 W/m² -
1788598803 30° C 53% 999 hPa - - 0 W/m² -
1788598480 30° C 53% 999 hPa - - 0 W/m² -
1788598156 30.56° C 51% 999 hPa - - 0 W/m² -
1788597832 33.89° C 43% 998 hPa - - 0 W/m² -
1788597509 35° C 41% 998 hPa - - 0 W/m² -
1788597184 35.56° C 41% 999 hPa - - 0 W/m² -
1788596860 30° C 53% 998 hPa - - 0 W/m² -
1788596536 30° C 53% 998 hPa - - 0 W/m² -
1788596212 29.44° C 54% 998 hPa - - 0 W/m² -
1788595888 30° C 54% 998 hPa - - 0 W/m² -
1788595564 30° C 54% 998 hPa - - 0 W/m² -
1788595240 30° C 54% 998 hPa - - 0 W/m² -
1788594916 30° C 54% 998 hPa - - 0 W/m² -

* Rain since midnight (hover to see other rain measurements)
** Current wind speed in m/s (hover to see current wind gust speed)